Rome Fiumicino, Italy

9:22 PM CEST on September 01, 2014 (GMT +0200)
Fiumicino | Change Station
CLOSE
Current Station
Airport
Location: Rome Fiumicino,
Elevation: 10 ft
Nearby Weather Stations
Active Advisory: Wind

Elev 10 ft 41.80 °N, 12.24 °E | Updated 32 minutes ago

Partly Cloudy
Partly Cloudy
66 °F
Feels Like 66 °F
N
16
Wind Variable Wind from NNW

Today
High -- | Low -- °F
--% Chance of Precip.
Yesterday
High -- | Low -- °F
Precip. -- in
6:36 AM 7:44 PM
Waxing Crescent, 43% visible
Pressure 29.65 in
Visibility 6.2 miles
Clouds Few 4500 ft
Dew Point 54 °F
Humidity 64%
Rainfall 0.00 in
Snow Depth Not available.
UV 0 out of 12
Pollen Not available.
Air Quality Not available.
Flu Activity Not available.
METAR LIRF 011850Z 33014KT 9999 FEW045 19/12 Q1004 NOSIG

More Conditions Fewer Conditions

Pressure 29.65 in
Visibility 6.2 miles
Clouds Few 4500 ft
Dew Point 54 °F
Humidity 64%
Rainfall 0.00 in
Snow Depth Not available.
UV 0 out of 12
Pollen Not available.
Air Quality Not available.
Flu Activity Not available.
METAR LIRF 011850Z 33014KT 9999 FEW045 19/12 Q1004 NOSIG

More Conditions Fewer Conditions

10-Day Weather Forecast

Almanac

Astronomy

Sep. 01, 2014 Rise Set
Actual Time 6:36 AM CEST 7:44 PM CEST
Civil Twilight 6:07 AM CEST 8:13 PM CEST
Nautical Twilight 5:33 AM CEST 8:47 PM CEST
Astronomical Twilight 4:57 AM CEST 9:23 PM CEST
Moon 1:11 PM CEST 11:26 PM CEST
Length of Visible Light 14h 05m
Length of Day
13h 08m
Tomorrow will be 2m 41s shorter.
Waxing Crescent, 43% of the Moon is Illuminated
Today
Waxing Crescent
Sep 2
First Quarter
Sep 8
Full
Sep 15
Last Quarter
Sep 24
New

Today's Extremes

Country Highs Country Lows

Community

WunderPhotos

Upload Photos

1,749,378 photos uploaded!

WunderBlogs® & News

Nearby

Snow Depth

Not available.

Earthquake Activity

City Distance Mag. Time & Date
No recent earthquake activity has been reported nearby.
Minimum magnitude displayed is 2.5.

Coastal Water Temperatures

Place Temperature
No Stations Reporting

Nearby Weather Stations